createdAt,value
2018-05-10T00:00:20.528Z,96834.27
2018-05-10T00:01:26.224Z,96828.67
2018-05-10T00:02:30.733Z,96825.78
2018-05-10T00:03:35.223Z,96822.98
2018-05-10T00:04:39.721Z,96832.93
2018-05-10T00:05:44.179Z,96828.95
2018-05-10T00:06:49.012Z,96825.34
2018-05-10T00:07:54.548Z,96826.60
2018-05-10T00:08:59.030Z,96827.47
2018-05-10T00:10:03.856Z,96828.55
2018-05-10T00:11:09.347Z,96830.05
2018-05-10T00:12:15.451Z,96829.80
2018-05-10T00:13:22.180Z,96826.80
2018-05-10T00:14:26.772Z,96828.16
2018-05-10T00:15:31.317Z,96820.21
2018-05-10T00:16:35.881Z,96821.59
2018-05-10T00:17:41.328Z,96828.78
2018-05-10T00:18:46.000Z,96822.70
2018-05-10T00:19:51.580Z,96820.50
2018-05-10T00:20:56.117Z,96815.84
2018-05-10T00:22:02.117Z,96824.06
2018-05-10T00:23:06.709Z,96817.72
2018-05-10T00:24:11.587Z,96822.35
2018-05-10T00:25:16.724Z,96819.81
2018-05-10T00:26:23.718Z,96811.03
2018-05-10T00:27:30.314Z,96813.89
2018-05-10T00:28:34.880Z,96813.84
2018-05-10T00:29:39.426Z,96813.88
2018-05-10T00:30:44.668Z,96819.06
2018-05-10T00:31:49.230Z,96815.23
2018-05-10T00:32:53.810Z,96809.32
2018-05-10T00:33:59.635Z,96811.77
2018-05-10T00:35:04.185Z,96802.48
2018-05-10T00:36:08.964Z,96807.33
2018-05-10T00:37:13.844Z,96802.63
2018-05-10T00:38:20.172Z,96799.97
2018-05-10T00:39:24.724Z,96806.56
2018-05-10T00:40:29.712Z,96804.85
2018-05-10T00:41:34.293Z,96813.45
2018-05-10T00:42:39.811Z,96818.62
2018-05-10T00:43:45.371Z,96819.30
2018-05-10T00:44:50.197Z,96820.73
2018-05-10T00:45:55.765Z,96818.17
2018-05-10T00:47:00.862Z,96816.44
2018-05-10T00:48:06.408Z,96814.24
2018-05-10T00:49:11.117Z,96814.48
2018-05-10T00:50:16.022Z,96814.48
2018-05-10T00:51:20.581Z,96811.10
2018-05-10T00:52:25.334Z,96809.94
2018-05-10T00:53:29.962Z,96810.01
2018-05-10T00:54:39.932Z,96801.69
2018-05-10T00:55:44.442Z,96809.84
2018-05-10T00:56:49.177Z,96807.14
2018-05-10T00:57:54.211Z,96814.77
2018-05-10T00:58:58.681Z,96811.41
2018-05-10T01:00:03.174Z,96806.49
2018-05-10T01:01:07.650Z,96799.70
2018-05-10T01:02:12.124Z,96811.69
2018-05-10T01:03:16.882Z,96808.13
2018-05-10T01:04:21.885Z,96802.03
2018-05-10T01:05:28.182Z,96807.91
2018-05-10T01:06:32.662Z,96799.42
2018-05-10T01:07:37.621Z,96800.89
2018-05-10T01:08:42.102Z,96798.28
2018-05-10T01:09:46.977Z,96802.83
2018-05-10T01:10:51.609Z,96807.83
2018-05-10T01:11:56.661Z,96811.27
2018-05-10T01:13:02.205Z,96812.98
2018-05-10T01:14:06.952Z,96810.89
2018-05-10T01:15:11.733Z,96816.45
2018-05-10T01:16:16.525Z,96817.94
2018-05-10T01:17:21.081Z,96816.65
2018-05-10T01:18:25.700Z,96822.09
2018-05-10T01:19:30.266Z,96820.05
2018-05-10T01:20:35.188Z,96816.13
2018-05-10T01:21:40.038Z,96824.64
2018-05-10T01:22:45.332Z,96820.52
2018-05-10T01:23:50.010Z,96817.30
2018-05-10T01:24:54.677Z,96821.68
2018-05-10T01:25:59.266Z,96822.50
2018-05-10T01:27:04.014Z,96823.84
2018-05-10T01:28:09.417Z,96818.63
2018-05-10T01:29:14.243Z,96815.91
2018-05-10T01:30:18.787Z,96811.35
2018-05-10T01:31:23.408Z,96811.71
2018-05-10T01:32:28.002Z,96812.82
2018-05-10T01:33:32.885Z,96810.30
2018-05-10T01:34:37.781Z,96814.37
2018-05-10T01:36:17.089Z,96817.84
2018-05-10T01:37:22.617Z,96814.10
2018-05-10T01:38:27.720Z,96809.23
2018-05-10T01:39:32.258Z,96810.75
2018-05-10T01:40:36.756Z,96812.45
2018-05-10T01:41:41.743Z,96809.69
2018-05-10T01:42:47.363Z,96805.58
2018-05-10T01:43:51.866Z,96804.58
2018-05-10T01:44:56.858Z,96808.31
2018-05-10T01:46:01.558Z,96804.16
2018-05-10T01:47:07.437Z,96809.62
2018-05-10T01:48:11.938Z,96805.89
2018-05-10T01:49:16.726Z,96807.81
2018-05-10T01:50:21.524Z,96804.73
2018-05-10T01:51:25.992Z,96801.22
2018-05-10T01:52:32.393Z,96803.97
2018-05-10T01:53:36.867Z,96811.88
2018-05-10T01:54:41.356Z,96807.17
2018-05-10T01:55:46.341Z,96805.31
2018-05-10T01:56:50.895Z,96808.53
2018-05-10T01:57:55.469Z,96812.03
2018-05-10T01:58:59.970Z,96812.22
2018-05-10T02:00:04.603Z,96809.34
2018-05-10T02:01:09.583Z,96809.05
2018-05-10T02:02:15.691Z,96812.91
2018-05-10T02:03:20.191Z,96817.39
2018-05-10T02:04:24.698Z,96818.77
2018-05-10T02:05:29.175Z,96824.96
2018-05-10T02:06:33.730Z,96820.11
2018-05-10T02:07:38.559Z,96823.22
2018-05-10T02:08:43.323Z,96818.73
2018-05-10T02:09:47.844Z,96821.08
2018-05-10T02:10:52.383Z,96820.28
2018-05-10T02:11:56.980Z,96821.55
2018-05-10T02:13:01.448Z,96823.72
2018-05-10T02:14:05.969Z,96820.07
2018-05-10T02:15:10.767Z,96823.44
2018-05-10T02:16:15.289Z,96826.95
2018-05-10T02:17:19.788Z,96826.98
2018-05-10T02:18:24.298Z,96828.67
2018-05-10T02:19:30.011Z,96824.33
2018-05-10T02:20:34.529Z,96826.50
2018-05-10T02:21:39.690Z,96829.27
2018-05-10T02:22:44.280Z,96829.48
2018-05-10T02:23:48.875Z,96826.75
2018-05-10T02:24:55.270Z,96829.47
2018-05-10T02:25:59.844Z,96829.53
2018-05-10T02:27:04.881Z,96828.48
2018-05-10T02:28:09.439Z,96826.89
2018-05-10T02:29:14.224Z,96826.96
2018-05-10T02:30:18.866Z,96832.33
2018-05-10T02:31:23.448Z,96831.46
2018-05-10T02:32:28.653Z,96831.17
2018-05-10T02:33:33.509Z,96830.22
2018-05-10T02:34:38.727Z,96831.44
2018-05-10T02:35:43.352Z,96832.61
2018-05-10T02:36:49.675Z,96835.53
2018-05-10T02:37:54.296Z,96844.23
2018-05-10T02:38:59.503Z,96835.20
2018-05-10T02:40:05.347Z,96838.49
2018-05-10T02:41:10.071Z,96840.91
2018-05-10T02:42:14.614Z,96842.45
2018-05-10T02:43:19.367Z,96841.39
2018-05-10T02:44:24.214Z,96845.28
2018-05-10T02:45:28.810Z,96848.50
2018-05-10T02:46:34.988Z,96849.62
2018-05-10T02:47:42.015Z,96842.61
2018-05-10T02:48:47.225Z,96848.42
2018-05-10T02:49:53.591Z,96851.94
2018-05-10T02:50:58.227Z,96852.48
2018-05-10T02:52:03.530Z,96858.55
2018-05-10T02:53:09.069Z,96853.28
2018-05-10T02:54:13.640Z,96857.80
2018-05-10T02:55:18.723Z,96855.08
2018-05-10T02:56:23.620Z,96855.16
2018-05-10T02:57:28.169Z,96859.66
2018-05-10T02:58:32.923Z,96858.78
2018-05-10T02:59:38.242Z,96863.00
2018-05-10T03:00:42.909Z,96862.06
2018-05-10T03:01:47.543Z,96868.74
2018-05-10T03:02:52.122Z,96867.56
2018-05-10T03:03:56.705Z,96871.20
2018-05-10T03:05:01.720Z,96866.66
2018-05-10T03:06:06.590Z,96868.50
2018-05-10T03:07:11.293Z,96867.83
2018-05-10T03:08:18.196Z,96868.17
2018-05-10T03:09:22.772Z,96871.99
2018-05-10T03:10:28.516Z,96868.28
2018-05-10T03:11:34.085Z,96870.13
2018-05-10T03:12:39.546Z,96872.73
2018-05-10T03:13:44.185Z,96874.50
2018-05-10T03:14:48.816Z,96868.44
2018-05-10T03:15:54.389Z,96871.86
2018-05-10T03:16:59.246Z,96877.72
2018-05-10T03:18:03.840Z,96877.34
2018-05-10T03:19:09.257Z,96877.13
2018-05-10T03:20:14.260Z,96876.80
2018-05-10T03:21:19.814Z,96883.20
2018-05-10T03:22:25.694Z,96878.34
2018-05-10T03:23:30.337Z,96879.43
2018-05-10T03:24:34.919Z,96873.96
2018-05-10T03:25:41.581Z,96876.89
2018-05-10T03:26:46.168Z,96879.09
2018-05-10T03:27:50.741Z,96883.28
2018-05-10T03:28:55.944Z,96877.70
2018-05-10T03:30:00.528Z,96886.81
2018-05-10T03:31:05.098Z,96882.55
2018-05-10T03:32:10.036Z,96885.48
2018-05-10T03:33:16.003Z,96885.13
2018-05-10T03:34:20.637Z,96883.80
2018-05-10T03:35:25.214Z,96888.16
2018-05-10T03:36:30.017Z,96887.16
2018-05-10T03:37:35.884Z,96887.88
2018-05-10T03:38:42.146Z,96883.40
2018-05-10T03:39:46.756Z,96890.47
2018-05-10T03:40:51.331Z,96883.15
2018-05-10T03:41:55.951Z,96883.48
2018-05-10T03:43:00.519Z,96882.48
2018-05-10T03:44:05.111Z,96882.23
2018-05-10T03:45:10.067Z,96883.09
2018-05-10T03:46:14.655Z,96886.56
2018-05-10T03:47:19.646Z,96887.06
2018-05-10T03:48:24.239Z,96889.88
2018-05-10T03:49:28.918Z,96894.74
2018-05-10T03:50:33.864Z,96897.99
2018-05-10T03:51:40.347Z,96895.34
2018-05-10T03:52:44.987Z,96898.52
2018-05-10T03:53:49.542Z,96899.58
2018-05-10T03:54:54.087Z,96902.31
2018-05-10T03:55:58.701Z,96905.57
2018-05-10T03:57:03.221Z,96900.26
2018-05-10T03:58:08.004Z,96907.65
2018-05-10T03:59:12.509Z,96908.05
2018-05-10T04:00:18.901Z,96904.13
2018-05-10T04:01:24.782Z,96908.05
2018-05-10T04:02:33.627Z,96907.59
2018-05-10T04:03:42.366Z,96912.30
2018-05-10T04:04:53.618Z,96915.91
2018-05-10T04:06:03.660Z,96916.08
2018-05-10T04:09:19.183Z,96909.25
2018-05-10T04:10:28.975Z,96913.95
2018-05-10T04:11:34.875Z,96916.63
2018-05-10T04:12:39.448Z,96919.03
2018-05-10T04:13:43.995Z,96909.20
2018-05-10T04:14:48.500Z,96914.15
2018-05-10T04:15:53.355Z,96913.81
2018-05-10T04:16:57.876Z,96913.81
2018-05-10T04:18:02.384Z,96916.97
2018-05-10T04:19:06.886Z,96918.62
2018-05-10T04:20:11.415Z,96915.37
2018-05-10T04:21:16.027Z,96920.47
2018-05-10T04:22:20.842Z,96926.83
2018-05-10T04:23:25.338Z,96920.75
2018-05-10T04:24:29.832Z,96925.53
2018-05-10T04:25:34.460Z,96932.72
2018-05-10T04:26:39.075Z,96927.42
2018-05-10T04:27:43.645Z,96929.21
2018-05-10T04:28:48.581Z,96925.61
2018-05-10T04:29:53.170Z,96932.41
2018-05-10T04:30:57.742Z,96924.75
2018-05-10T04:32:02.386Z,96931.06
2018-05-10T04:33:07.002Z,96929.87
2018-05-10T04:34:11.703Z,96935.05
2018-05-10T04:35:16.679Z,96935.39
2018-05-10T04:36:21.306Z,96930.27
2018-05-10T04:37:26.455Z,96937.06
2018-05-10T04:38:31.733Z,96929.60
2018-05-10T04:39:36.596Z,96938.44
2018-05-10T04:40:41.991Z,96936.78
2018-05-10T04:41:48.063Z,96939.98
2018-05-10T04:42:54.248Z,96937.33
2018-05-10T04:43:58.834Z,96942.52
2018-05-10T04:45:03.492Z,96940.64
2018-05-10T04:46:08.145Z,96938.38
2018-05-10T04:47:12.774Z,96946.97
2018-05-10T04:48:20.314Z,96944.91
2018-05-10T04:49:24.946Z,96947.91
2018-05-10T04:50:34.537Z,96939.58
2018-05-10T04:51:39.097Z,96944.78
2018-05-10T04:52:45.770Z,96942.70
2018-05-10T04:53:50.415Z,96941.70
2018-05-10T04:54:55.425Z,96945.42
2018-05-10T04:56:00.006Z,96947.95
2018-05-10T04:57:05.013Z,96947.55
2018-05-10T04:58:09.689Z,96955.14
2018-05-10T04:59:15.923Z,96951.87
2018-05-10T05:00:21.497Z,96952.55
2018-05-10T05:01:26.632Z,96946.89
2018-05-10T05:02:31.209Z,96946.95
2018-05-10T05:03:35.820Z,96952.23
2018-05-10T05:04:42.136Z,96948.28
2018-05-10T05:05:48.157Z,96950.02
2018-05-10T05:06:53.690Z,96956.53
2018-05-10T05:07:59.157Z,96960.66
2018-05-10T05:09:03.922Z,96958.53
2018-05-10T05:10:08.635Z,96959.06
2018-05-10T05:11:13.747Z,96961.66
2018-05-10T05:12:19.355Z,96971.64
2018-05-10T05:13:23.956Z,96962.85
2018-05-10T05:14:33.391Z,96968.80
2018-05-10T05:15:39.454Z,96961.34
2018-05-10T05:16:44.235Z,96966.34
2018-05-10T05:17:50.179Z,96968.86
2018-05-10T05:18:54.716Z,96963.98
2018-05-10T05:19:59.673Z,96968.11
2018-05-10T05:21:04.929Z,96973.83
2018-05-10T05:22:15.248Z,96964.19
2018-05-10T05:23:21.341Z,96965.67
2018-05-10T05:24:25.940Z,96973.31
2018-05-10T05:25:30.908Z,96975.91
2018-05-10T05:26:35.973Z,96974.34
2018-05-10T05:27:41.097Z,96977.98
2018-05-10T05:28:46.062Z,96975.25
2018-05-10T05:29:52.724Z,96982.80
2018-05-10T05:30:57.304Z,96969.27
2018-05-10T05:32:01.832Z,96984.30
2018-05-10T05:33:06.364Z,96988.89
2018-05-10T05:34:11.645Z,96984.61
2018-05-10T05:35:17.361Z,96975.94
2018-05-10T05:36:22.170Z,96994.68
2018-05-10T05:37:26.665Z,96985.39
2018-05-10T05:38:31.195Z,96994.77
2018-05-10T05:39:36.507Z,96995.05
2018-05-10T05:40:41.499Z,96988.58
2018-05-10T05:41:48.188Z,96993.77
2018-05-10T05:42:53.014Z,96992.55
2018-05-10T05:44:00.692Z,96999.55
2018-05-10T05:45:05.593Z,96993.95
2018-05-10T05:46:10.817Z,96996.57
2018-05-10T05:47:16.497Z,97004.61
2018-05-10T05:48:22.059Z,96994.84
2018-05-10T05:49:26.969Z,96996.72
2018-05-10T05:50:32.850Z,96995.45
2018-05-10T05:51:37.318Z,96997.03
2018-05-10T05:52:42.377Z,97001.23
2018-05-10T05:53:47.304Z,97001.44
2018-05-10T05:54:51.959Z,96997.36
2018-05-10T05:55:56.479Z,97004.35
2018-05-10T05:57:01.096Z,97005.49
2018-05-10T05:58:06.571Z,97007.75
2018-05-10T05:59:13.630Z,97008.11
2018-05-10T06:00:18.662Z,97003.36
2018-05-10T06:01:23.493Z,97011.43
2018-05-10T06:02:28.270Z,97008.25
2018-05-10T06:03:32.898Z,97007.44
2018-05-10T06:04:37.641Z,97015.09
2018-05-10T06:05:42.255Z,97012.95
2018-05-10T06:06:48.528Z,97014.28
2018-05-10T06:07:53.189Z,97017.09
2018-05-10T06:08:57.787Z,97018.73
2018-05-10T06:10:02.317Z,97016.27
2018-05-10T06:11:07.657Z,97011.55
2018-05-10T06:12:13.278Z,97010.02
2018-05-10T06:13:18.208Z,97008.69
2018-05-10T06:14:23.220Z,97009.83
2018-05-10T06:15:28.514Z,97016.62
2018-05-10T06:16:33.092Z,97006.69
2018-05-10T06:17:37.590Z,97016.64
2018-05-10T06:18:43.134Z,97014.02
2018-05-10T06:19:48.139Z,97021.00
2018-05-10T06:20:52.926Z,97023.16
2018-05-10T06:21:58.692Z,97022.09
2018-05-10T06:23:04.114Z,97029.05
2018-05-10T06:24:09.100Z,97028.02
2018-05-10T06:25:14.654Z,97034.14
2018-05-10T06:26:19.583Z,97037.67
2018-05-10T06:27:24.252Z,97042.13
2018-05-10T06:28:29.321Z,97041.92
2018-05-10T06:29:34.198Z,97037.06
2018-05-10T06:30:39.067Z,97044.78
2018-05-10T06:31:44.099Z,97047.58
2018-05-10T06:32:49.892Z,97049.98
2018-05-10T06:33:55.708Z,97059.89
2018-05-10T06:35:01.483Z,97056.91
2018-05-10T06:36:06.139Z,97054.97
2018-05-10T06:37:10.877Z,97047.98
2018-05-10T06:38:16.459Z,97058.83
2018-05-10T06:39:21.955Z,97061.56
2018-05-10T06:40:26.604Z,97060.49
2018-05-10T06:41:31.487Z,97061.63
2018-05-10T06:42:36.069Z,97058.30
2018-05-10T06:43:40.995Z,97066.09
2018-05-10T06:44:45.598Z,97075.60
2018-05-10T06:45:51.434Z,97071.67
2018-05-10T06:46:56.036Z,97078.16
2018-05-10T06:48:00.582Z,97080.66
2018-05-10T06:49:05.191Z,97083.73
2018-05-10T06:50:10.543Z,97086.22
2018-05-10T06:51:17.444Z,97090.98
2018-05-10T06:52:22.058Z,97095.05
2018-05-10T06:53:26.658Z,97091.98
2018-05-10T06:54:31.308Z,97095.25
2018-05-10T06:55:37.516Z,97096.84
2018-05-10T06:56:42.144Z,97095.64
2018-05-10T06:57:47.173Z,97095.02
2018-05-10T06:58:51.807Z,97094.48
2018-05-10T06:59:56.463Z,97104.53
2018-05-10T07:01:01.028Z,97102.63
2018-05-10T07:02:05.612Z,97098.24
2018-05-10T07:03:10.207Z,97104.46
2018-05-10T07:04:15.275Z,97104.44
2018-05-10T07:05:19.874Z,97108.26
2018-05-10T07:06:24.436Z,97111.53
2018-05-10T07:07:29.046Z,97112.78
2018-05-10T07:08:33.622Z,97114.29
2018-05-10T07:09:38.493Z,97120.70
2018-05-10T07:10:43.906Z,97123.08
2018-05-10T07:11:48.535Z,97124.11
2018-05-10T07:12:54.054Z,97125.20
2018-05-10T07:13:58.986Z,97130.06
2018-05-10T07:15:03.923Z,97130.63
2018-05-10T07:16:09.054Z,97134.65
2018-05-10T07:18:17.360Z,97138.99
2018-05-10T07:19:22.047Z,97142.71
2018-05-10T07:20:26.986Z,97147.55
2018-05-10T07:21:31.619Z,97142.82
2018-05-10T07:22:36.249Z,97150.75
2018-05-10T07:23:41.154Z,97152.84
2018-05-10T07:24:45.759Z,97153.83
2018-05-10T07:25:50.304Z,97152.02
2018-05-10T07:26:54.902Z,97148.02
2018-05-10T07:27:59.588Z,97152.23
2018-05-10T07:29:04.490Z,97165.97
2018-05-10T07:30:09.471Z,97160.97
2018-05-10T07:31:14.103Z,97160.09
2018-05-10T07:32:18.681Z,97168.16
2018-05-10T07:33:23.358Z,97169.99
2018-05-10T07:34:27.964Z,97171.13
2018-05-10T07:35:32.653Z,97170.29
2018-05-10T07:36:37.568Z,97181.50
2018-05-10T07:37:42.167Z,97175.09
2018-05-10T07:38:46.786Z,97183.09
2018-05-10T07:39:51.420Z,97175.02
2018-05-10T07:40:56.000Z,97180.41
2018-05-10T07:42:00.704Z,97172.01
2018-05-10T07:43:05.686Z,97174.60
2018-05-10T07:44:10.282Z,97171.67
2018-05-10T07:45:14.873Z,97170.54
2018-05-10T07:46:19.485Z,97165.95
2018-05-10T07:47:24.154Z,97167.73
2018-05-10T07:48:28.702Z,97170.03
2018-05-10T07:49:33.780Z,97169.30
2018-05-10T07:50:38.351Z,97168.30
2018-05-10T07:51:42.950Z,97160.30
2018-05-10T07:52:47.561Z,97166.16
2018-05-10T07:53:52.164Z,97165.30
2018-05-10T07:54:56.787Z,97168.69
2018-05-10T07:56:01.890Z,97167.66
2018-05-10T07:57:06.472Z,97171.91
2018-05-10T07:58:11.085Z,97170.81
2018-05-10T07:59:15.731Z,97176.75
2018-05-10T08:00:20.374Z,97178.84
2018-05-10T08:01:24.988Z,97170.19
2018-05-10T08:02:29.948Z,97175.69
2018-05-10T08:03:34.525Z,97166.76
2018-05-10T08:04:39.113Z,97171.48
2018-05-10T08:05:43.677Z,97170.95
2018-05-10T08:06:48.208Z,97165.28
2018-05-10T08:07:53.721Z,97159.91
2018-05-10T08:08:58.686Z,97156.25
2018-05-10T08:10:03.328Z,97157.88
2018-05-10T08:11:07.808Z,97162.55
2018-05-10T08:12:12.322Z,97167.66
2018-05-10T08:13:16.826Z,97158.48
2018-05-10T08:14:21.390Z,97164.81
2018-05-10T08:15:26.502Z,97171.82
2018-05-10T08:16:31.274Z,97177.61
2018-05-10T08:17:35.876Z,97178.36
2018-05-10T08:18:40.496Z,97184.20
2018-05-10T08:19:45.069Z,97177.61
2018-05-10T08:20:49.699Z,97178.00
2018-05-10T08:21:54.671Z,97181.55
2018-05-10T08:22:59.299Z,97182.88
2018-05-10T08:24:03.942Z,97183.48
2018-05-10T08:25:08.547Z,97179.73
2018-05-10T08:26:13.163Z,97188.52
2018-05-10T08:27:17.745Z,97188.86
2018-05-10T08:28:22.676Z,97183.27
2018-05-10T08:29:31.643Z,97190.52
2018-05-10T08:30:36.234Z,97193.27
2018-05-10T08:31:40.854Z,97193.91
2018-05-10T08:32:45.531Z,97198.72
2018-05-10T08:33:50.140Z,97200.52
2018-05-10T08:34:55.140Z,97197.70
2018-05-10T08:35:59.762Z,97200.27
2018-05-10T08:37:04.353Z,97206.13
2018-05-10T08:38:08.953Z,97205.46
2018-05-10T08:39:13.615Z,97210.02
2018-05-10T08:40:18.331Z,97209.77
2018-05-10T08:41:23.237Z,97194.80
2018-05-10T08:42:27.827Z,97218.12
2018-05-10T08:43:32.470Z,97215.12
2018-05-10T08:44:37.071Z,97213.77
2018-05-10T08:45:41.684Z,97215.40
2018-05-10T08:46:46.559Z,97212.50
2018-05-10T08:47:51.211Z,97212.28
2018-05-10T08:48:55.800Z,97210.22
2018-05-10T08:50:00.413Z,97215.73
2018-05-10T08:51:05.008Z,97211.73
2018-05-10T08:52:09.704Z,97215.18
2018-05-10T08:53:14.645Z,97210.09
2018-05-10T08:54:19.264Z,97208.55
2018-05-10T08:55:23.984Z,97204.70
2018-05-10T08:56:28.570Z,97201.50
2018-05-10T08:57:33.157Z,97199.19
2018-05-10T08:58:37.789Z,97195.53
2018-05-10T08:59:42.705Z,97200.40
2018-05-10T09:00:47.746Z,97191.26
2018-05-10T09:01:52.413Z,97186.45
2018-05-10T09:02:57.005Z,97188.42
2018-05-10T09:04:01.594Z,97183.28
2018-05-10T09:05:06.203Z,97175.80
2018-05-10T09:06:11.054Z,97183.38
2018-05-10T09:07:15.641Z,97179.28
2018-05-10T09:08:20.233Z,97170.91
2018-05-10T09:09:24.853Z,97176.20
2018-05-10T09:10:29.456Z,97175.00
2018-05-10T09:11:34.055Z,97174.02
2018-05-10T09:12:38.998Z,97179.84
2018-05-10T09:13:43.575Z,97176.17
2018-05-10T09:14:48.214Z,97181.06
2018-05-10T09:15:52.884Z,97187.28
2018-05-10T09:16:57.515Z,97183.52
2018-05-10T09:18:02.141Z,97180.91
2018-05-10T09:19:07.049Z,97178.45
2018-05-10T09:20:11.643Z,97188.45
2018-05-10T09:21:16.280Z,97189.70
2018-05-10T09:22:20.815Z,97189.16
2018-05-10T09:23:25.346Z,97182.04
2018-05-10T09:24:29.885Z,97186.23
2018-05-10T09:25:35.307Z,97185.13
2018-05-10T09:26:39.799Z,97180.45
2018-05-10T09:27:44.326Z,97180.73
2018-05-10T09:28:49.007Z,97179.86
2018-05-10T09:29:53.612Z,97184.75
2018-05-10T09:30:58.172Z,97179.91
2018-05-10T09:32:03.173Z,97189.95
2018-05-10T09:33:07.714Z,97187.48
2018-05-10T09:34:12.261Z,97198.67
2018-05-10T09:35:16.778Z,97205.98
2018-05-10T09:36:21.289Z,97187.05
2018-05-10T09:37:25.872Z,97204.47
2018-05-10T09:38:30.756Z,97212.56
2018-05-10T09:39:35.357Z,97196.31
2018-05-10T09:40:39.857Z,97222.36
2018-05-10T09:41:44.392Z,97223.12
2018-05-10T09:42:48.929Z,97222.88
2018-05-10T09:43:53.517Z,97224.24
2018-05-10T09:44:58.547Z,97221.46
2018-05-10T09:46:04.703Z,97226.89
2018-05-10T09:47:09.292Z,97229.02
2018-05-10T09:48:13.936Z,97230.74
2018-05-10T09:49:18.720Z,97236.83
2018-05-10T09:50:24.200Z,97236.08
2018-05-10T09:51:31.260Z,97240.80
2018-05-10T09:52:36.818Z,97238.16
2018-05-10T09:53:42.274Z,97239.70
2018-05-10T09:54:48.723Z,97242.39
2018-05-10T09:55:53.532Z,97240.81
2018-05-10T09:56:58.271Z,97243.73
2018-05-10T09:58:03.326Z,97245.92
2018-05-10T09:59:07.931Z,97242.13
2018-05-10T10:00:16.610Z,97250.98
2018-05-10T10:01:21.235Z,97258.00
2018-05-10T10:02:26.000Z,97258.09
2018-05-10T10:03:30.600Z,97256.09
2018-05-10T10:04:35.540Z,97259.27
2018-05-10T10:05:40.155Z,97256.40
2018-05-10T10:06:44.826Z,97268.05
2018-05-10T10:07:49.438Z,97264.45
2018-05-10T10:08:54.039Z,97271.28
2018-05-10T10:09:58.704Z,97274.09
2018-05-10T10:11:03.681Z,97270.20
2018-05-10T10:12:08.269Z,97274.86
2018-05-10T10:13:12.894Z,97269.25
2018-05-10T10:14:17.527Z,97275.48
2018-05-10T10:15:22.154Z,97279.73
2018-05-10T10:16:26.793Z,97284.28
2018-05-10T10:17:31.766Z,97284.44
2018-05-10T10:18:36.349Z,97284.84
2018-05-10T10:19:40.977Z,97279.33
2018-05-10T10:20:45.608Z,97282.75
2018-05-10T10:21:50.230Z,97283.39
2018-05-10T10:22:55.322Z,97279.97
2018-05-10T10:23:59.959Z,97285.30
2018-05-10T10:25:04.623Z,97294.52
2018-05-10T10:26:09.250Z,97294.79
2018-05-10T10:27:13.895Z,97299.28
2018-05-10T10:28:18.486Z,97298.52
2018-05-10T10:29:23.595Z,97301.08
2018-05-10T10:30:28.248Z,97305.18
2018-05-10T10:31:32.892Z,97306.41
2018-05-10T10:32:37.545Z,97306.68
2018-05-10T10:33:42.218Z,97308.59
2018-05-10T10:34:46.992Z,97313.34
2018-05-10T10:35:51.891Z,97308.25
2018-05-10T10:36:56.503Z,97308.80
2018-05-10T10:38:01.135Z,97308.34
2018-05-10T10:39:07.150Z,97310.27
2018-05-10T10:40:11.936Z,97313.77
2018-05-10T10:41:18.186Z,97312.99
2018-05-10T10:42:23.194Z,97316.14
2018-05-10T10:43:27.926Z,97315.64
2018-05-10T10:44:32.501Z,97321.31
2018-05-10T10:45:37.143Z,97315.92
2018-05-10T10:46:41.718Z,97320.75
2018-05-10T10:47:46.423Z,97315.76
2018-05-10T10:48:51.357Z,97320.89
2018-05-10T10:49:56.060Z,97320.27
2018-05-10T10:51:00.697Z,97321.84
2018-05-10T10:52:05.311Z,97325.92
2018-05-10T10:53:09.930Z,97323.68
2018-05-10T10:54:14.672Z,97331.08
2018-05-10T10:55:19.598Z,97329.17
2018-05-10T10:56:24.225Z,97335.95
2018-05-10T10:57:28.851Z,97329.41
2018-05-10T10:58:33.458Z,97332.80
2018-05-10T10:59:38.087Z,97313.20
2018-05-10T11:00:42.757Z,97340.19
2018-05-10T11:01:47.667Z,97335.44
2018-05-10T11:02:52.289Z,97334.87
2018-05-10T11:03:56.878Z,97339.06
2018-05-10T11:05:02.214Z,97346.80
2018-05-10T11:06:06.822Z,97326.09
2018-05-10T11:07:11.461Z,97353.16
2018-05-10T11:08:16.050Z,97355.80
2018-05-10T11:09:20.630Z,97361.83
2018-05-10T11:10:25.236Z,97369.84
2018-05-10T11:11:30.217Z,97375.25
2018-05-10T11:12:34.871Z,97370.95
2018-05-10T11:13:39.767Z,97372.67
2018-05-10T11:14:44.358Z,97379.23
2018-05-10T11:15:48.985Z,97374.36
2018-05-10T11:16:53.877Z,97384.45
2018-05-10T11:17:58.908Z,97377.20
2018-05-10T11:19:03.534Z,97379.71
2018-05-10T11:20:08.417Z,97383.42
2018-05-10T11:21:13.072Z,97374.19
2018-05-10T11:22:17.843Z,97381.70
2018-05-10T11:23:22.532Z,97386.48
2018-05-10T11:24:27.503Z,97394.39
2018-05-10T11:25:32.136Z,97388.92
2018-05-10T11:26:37.036Z,97390.47
2018-05-10T11:27:41.658Z,97393.00
2018-05-10T11:28:46.476Z,97394.57
2018-05-10T11:29:51.229Z,97402.17
2018-05-10T11:30:55.873Z,97396.83
2018-05-10T11:32:00.512Z,97399.07
2018-05-10T11:33:05.737Z,97400.62
2018-05-10T11:34:10.356Z,97398.67
2018-05-10T11:35:15.030Z,97399.65
2018-05-10T11:36:19.637Z,97399.59
2018-05-10T11:37:24.278Z,97403.48
2018-05-10T11:38:29.135Z,97397.64
2018-05-10T11:39:34.120Z,97401.08
2018-05-10T11:40:38.706Z,97404.84
2018-05-10T11:41:43.217Z,97404.46
2018-05-10T11:42:47.805Z,97406.07
2018-05-10T11:43:52.354Z,97409.02
2018-05-10T11:44:56.916Z,97408.08
2018-05-10T11:46:01.734Z,97408.13
2018-05-10T11:47:06.263Z,97409.34
2018-05-10T11:48:10.765Z,97410.91
2018-05-10T11:49:15.284Z,97410.17
2018-05-10T11:50:19.818Z,97415.30
2018-05-10T11:51:24.379Z,97411.59
2018-05-10T11:52:29.252Z,97414.69
2018-05-10T11:53:33.800Z,97409.33
2018-05-10T11:54:38.321Z,97414.47
2018-05-10T11:55:42.840Z,97413.03
2018-05-10T11:58:09.116Z,97417.08
2018-05-10T11:59:13.681Z,97422.44
2018-05-10T12:00:18.257Z,97417.48
2018-05-10T12:01:22.804Z,97417.55
2018-05-10T12:02:27.351Z,97407.13
2018-05-10T12:03:31.899Z,97419.95
2018-05-10T12:04:36.956Z,97420.09
2018-05-10T12:05:41.503Z,97424.19
2018-05-10T12:06:46.007Z,97418.42
2018-05-10T12:07:50.551Z,97424.05
2018-05-10T12:08:55.108Z,97431.19
2018-05-10T12:09:59.667Z,97431.98
2018-05-10T12:11:04.526Z,97424.11
2018-05-10T12:12:09.111Z,97433.54
2018-05-10T12:13:13.688Z,97432.33
2018-05-10T12:14:18.228Z,97429.58
2018-05-10T12:15:22.801Z,97435.34
2018-05-10T12:16:27.337Z,97442.12
2018-05-10T12:17:32.135Z,97439.08
2018-05-10T12:18:36.763Z,97449.13
2018-05-10T12:19:41.295Z,97454.87
2018-05-10T12:20:45.875Z,97458.17
2018-05-10T12:21:50.462Z,97453.32
2018-05-10T12:22:54.982Z,97459.91
2018-05-10T12:23:59.788Z,97463.80
2018-05-10T12:25:04.419Z,97465.97
2018-05-10T12:26:08.924Z,97462.94
2018-05-10T12:27:13.539Z,97466.84
2018-05-10T12:28:18.211Z,97461.63
2018-05-10T12:29:22.713Z,97469.36
2018-05-10T12:30:27.593Z,97477.38
2018-05-10T12:31:32.095Z,97470.56
2018-05-10T12:32:36.625Z,97478.36
2018-05-10T12:33:41.205Z,97479.16
2018-05-10T12:34:45.764Z,97478.37
2018-05-10T12:35:50.325Z,97487.95
2018-05-10T12:36:55.228Z,97486.78
2018-05-10T12:37:59.772Z,97483.40
2018-05-10T12:39:04.512Z,97493.45
2018-05-10T12:40:09.066Z,97487.91
2018-05-10T12:41:13.547Z,97487.55
2018-05-10T12:42:18.122Z,97495.05
2018-05-10T12:43:22.947Z,97491.24
2018-05-10T12:44:27.545Z,97491.42
2018-05-10T12:45:32.048Z,97500.20
2018-05-10T12:46:36.556Z,97495.16
2018-05-10T12:47:41.206Z,97495.64